Time;durP1;ratioP1;P1;durP2;ratioP2;P2;SDS_P1;SDS_P2;PMS_P1;PMS_P2;Temp;Humidity;BMP_temperature;BMP_pressure;BME280_temperature;BME280_humidity;BME280_pressure;Samples;Min_cycle;Max_cycle;Signal;HPM_P1;HPM_P2
2023/09/02 00:00:28;;;;;;;15.55;5.70;;;;;;;;;;5053644;28;20040;-67
2023/09/02 00:02:55;;;;;;;17.90;6.22;;;;;;;;;;5057075;28;20043;-67
2023/09/02 00:05:21;;;;;;;13.32;6.35;;;;;;;;;;5058423;28;20037;-67
2023/09/02 00:07:47;;;;;;;16.25;6.15;;;;;;;;;;5057710;28;20047;-67
2023/09/02 00:10:12;;;;;;;18.48;6.43;;;;;;;;;;5054862;28;20041;-68
2023/09/02 00:12:38;;;;;;;13.88;6.60;;;;;;;;;;5053132;28;20040;-68
2023/09/02 00:15:05;;;;;;;12.82;6.82;;;;;;;;;;5053315;28;20040;-68
2023/09/02 00:17:32;;;;;;;12.75;6.90;;;;;;;;;;5036636;28;20059;-67
2023/09/02 00:19:58;;;;;;;14.25;6.40;;;;;;;;;;5036249;28;20068;-68
2023/09/02 00:22:24;;;;;;;18.17;7.00;;;;;;;;;;5037338;28;20099;-68
2023/09/02 00:24:50;;;;;;;21.35;6.75;;;;;;;;;;5037597;28;20037;-67
2023/09/02 00:27:15;;;;;;;13.25;6.57;;;;;;;;;;5054189;28;20037;-67
2023/09/02 00:29:42;;;;;;;16.00;7.28;;;;;;;;;;5053671;28;20067;-72
2023/09/02 00:32:08;;;;;;;19.50;6.95;;;;;;;;;;5054329;28;20061;-67
2023/09/02 00:34:33;;;;;;;13.32;6.93;;;;;;;;;;5055119;28;20037;-67
2023/09/02 00:36:59;;;;;;;15.35;7.38;;;;;;;;;;5037549;28;20372;-67
2023/09/02 00:39:25;;;;;;;14.77;6.85;;;;;;;;;;5053399;28;20045;-67
2023/09/02 00:41:53;;;;;;;18.00;6.93;;;;;;;;;;5036815;28;20037;-67
2023/09/02 00:44:19;;;;;;;17.00;6.68;;;;;;;;;;5052536;28;20065;-67
2023/09/02 00:46:45;;;;;;;19.90;7.30;;;;;;;;;;5035753;28;20181;-67
2023/09/02 00:49:11;;;;;;;12.07;6.65;;;;;;;;;;5052971;28;20040;-68
2023/09/02 00:51:37;;;;;;;16.27;6.82;;;;;;;;;;5052891;28;20072;-67
2023/09/02 00:54:03;;;;;;;15.27;7.07;;;;;;;;;;5052422;28;20118;-67
2023/09/02 00:56:30;;;;;;;13.10;6.85;;;;;;;;;;5051832;28;20521;-67
2023/09/02 00:58:59;;;;;;;18.45;7.00;;;;;;;;;;5018544;28;20033;-67
2023/09/02 01:01:26;;;;;;;11.57;6.93;;;;;;;;;;5051512;28;20132;-67
2023/09/02 01:03:52;;;;;;;20.13;6.50;;;;;;;;;;5053215;28;20036;-67
2023/09/02 01:06:18;;;;;;;15.43;6.68;;;;;;;;;;5052152;28;20044;-66
2023/09/02 01:08:45;;;;;;;11.27;6.63;;;;;;;;;;5051621;28;20044;-66
2023/09/02 01:11:10;;;;;;;18.15;6.93;;;;;;;;;;5051872;28;20090;-67
2023/09/02 01:13:36;;;;;;;16.90;7.25;;;;;;;;;;5051658;28;20036;-66
2023/09/02 01:16:02;;;;;;;17.40;6.72;;;;;;;;;;5051512;28;20383;-66
2023/09/02 01:18:28;;;;;;;18.38;6.95;;;;;;;;;;5052451;28;20044;-66
2023/09/02 01:21:13;;;;;;;18.08;7.03;;;;;;;;;;5051987;28;20048;-66
2023/09/02 01:23:48;;;;;;;15.48;6.70;;;;;;;;;;5051182;28;20037;-66
2023/09/02 01:26:40;;;;;;;16.88;7.30;;;;;;;;;;5052607;28;20379;-66
2023/09/02 01:29:07;;;;;;;14.23;6.57;;;;;;;;;;5051205;28;20041;-67
2023/09/02 01:31:35;;;;;;;19.88;6.88;;;;;;;;;;5034715;28;20045;-67
2023/09/02 01:34:02;;;;;;;18.85;6.50;;;;;;;;;;5036175;28;20040;-66
2023/09/02 01:36:29;;;;;;;12.73;5.90;;;;;;;;;;5036541;28;20037;-66
2023/09/02 01:38:56;;;;;;;16.67;6.28;;;;;;;;;;5052213;28;20403;-66
2023/09/02 01:41:22;;;;;;;13.13;6.30;;;;;;;;;;5034490;28;20055;-66
2023/09/02 01:43:48;;;;;;;16.40;6.47;;;;;;;;;;5017674;28;20494;-66
2023/09/02 01:46:14;;;;;;;15.15;6.13;;;;;;;;;;5034314;28;20537;-66
2023/09/02 01:48:41;;;;;;;12.60;6.55;;;;;;;;;;5050889;28;20045;-66
2023/09/02 01:51:08;;;;;;;15.65;6.60;;;;;;;;;;5051013;28;20548;-66
2023/09/02 01:53:33;;;;;;;14.13;6.75;;;;;;;;;;5034704;28;20037;-67
2023/09/02 01:55:59;;;;;;;14.15;6.60;;;;;;;;;;5050973;28;20182;-67
2023/09/02 01:58:25;;;;;;;19.33;7.18;;;;;;;;;;5051258;28;20045;-66
2023/09/02 02:00:51;;;;;;;14.80;5.90;;;;;;;;;;5051046;28;20037;-66
2023/09/02 02:03:24;;;;;;;11.05;6.18;;;;;;;;;;5051088;28;20041;-66
2023/09/02 02:05:53;;;;;;;15.68;6.57;;;;;;;;;;5034395;28;20207;-67
2023/09/02 02:08:31;;;;;;;15.43;6.18;;;;;;;;;;5034277;28;20057;-67
2023/09/02 02:10:59;;;;;;;15.77;6.68;;;;;;;;;;5034680;28;20106;-67
2023/09/02 02:13:25;;;;;;;15.57;6.25;;;;;;;;;;5054301;28;20051;-67
2023/09/02 02:15:51;;;;;;;18.17;6.32;;;;;;;;;;5055986;28;20100;-66
2023/09/02 02:18:17;;;;;;;10.85;5.95;;;;;;;;;;5022295;28;20099;-66
2023/09/02 02:20:48;;;;;;;11.32;5.80;;;;;;;;;;5055026;28;20076;-66
2023/09/02 02:23:14;;;;;;;13.25;6.57;;;;;;;;;;5055661;28;20048;-66
2023/09/02 02:25:39;;;;;;;11.13;6.15;;;;;;;;;;5038391;28;20040;-65
2023/09/02 02:28:06;;;;;;;13.90;6.20;;;;;;;;;;5055701;28;20045;-66
2023/09/02 02:30:32;;;;;;;16.75;5.90;;;;;;;;;;5055867;28;20529;-66
2023/09/02 02:32:59;;;;;;;14.18;6.43;;;;;;;;;;5056788;28;20044;-66
2023/09/02 02:35:29;;;;;;;13.13;6.65;;;;;;;;;;5054554;28;20055;-66
2023/09/02 02:37:55;;;;;;;11.52;6.20;;;;;;;;;;5054079;28;20460;-66
2023/09/02 02:40:22;;;;;;;22.33;6.60;;;;;;;;;;5055776;28;20033;-66
2023/09/02 02:42:47;;;;;;;12.10;6.15;;;;;;;;;;5055888;28;20048;-67
2023/09/02 02:45:13;;;;;;;14.25;6.57;;;;;;;;;;5054361;28;20037;-67
2023/09/02 02:47:39;;;;;;;10.15;6.30;;;;;;;;;;5039223;28;20519;-68
2023/09/02 02:50:05;;;;;;;14.60;6.47;;;;;;;;;;5056844;28;20163;-67
2023/09/02 02:52:33;;;;;;;21.92;6.43;;;;;;;;;;5054897;28;20041;-67
2023/09/02 02:54:58;;;;;;;12.02;6.15;;;;;;;;;;5055101;28;20044;-67
2023/09/02 02:57:24;;;;;;;15.65;6.68;;;;;;;;;;5038218;28;20041;-66
2023/09/02 02:59:52;;;;;;;15.65;6.32;;;;;;;;;;5055321;28;20036;-67
2023/09/02 03:02:19;;;;;;;18.25;6.50;;;;;;;;;;5054646;28;20044;-67
2023/09/02 03:04:48;;;;;;;14.40;6.25;;;;;;;;;;5054443;28;20467;-66
2023/09/02 03:07:14;;;;;;;15.13;6.75;;;;;;;;;;5054260;28;20119;-66
2023/09/02 03:09:42;;;;;;;11.93;6.07;;;;;;;;;;5040647;28;20109;-66
2023/09/02 03:12:07;;;;;;;13.68;6.65;;;;;;;;;;5057255;28;20037;-66
2023/09/02 03:14:33;;;;;;;14.63;6.88;;;;;;;;;;5037579;28;20039;-66
2023/09/02 03:16:59;;;;;;;12.20;7.05;;;;;;;;;;5054210;28;20040;-67
2023/09/02 03:19:25;;;;;;;12.68;6.80;;;;;;;;;;5053663;28;20047;-66
2023/09/02 03:21:51;;;;;;;20.67;6.65;;;;;;;;;;5036932;28;20044;-67
2023/09/02 03:24:17;;;;;;;12.30;7.15;;;;;;;;;;5036303;28;20087;-67
2023/09/02 03:26:43;;;;;;;16.02;6.82;;;;;;;;;;5054712;28;20044;-67
2023/09/02 03:29:09;;;;;;;11.88;6.13;;;;;;;;;;5054732;28;20052;-68
2023/09/02 03:31:36;;;;;;;17.45;6.70;;;;;;;;;;5054513;28;20045;-67
2023/09/02 03:34:03;;;;;;;14.18;6.45;;;;;;;;;;5057062;28;20044;-66
2023/09/02 03:36:29;;;;;;;20.90;7.13;;;;;;;;;;5055537;28;20434;-67
2023/09/02 03:38:55;;;;;;;14.18;7.05;;;;;;;;;;5053618;28;20029;-66
2023/09/02 03:41:23;;;;;;;14.77;6.93;;;;;;;;;;5053316;28;20087;-67
2023/09/02 03:43:48;;;;;;;17.00;6.95;;;;;;;;;;5053655;28;20119;-67
2023/09/02 03:46:15;;;;;;;17.17;6.75;;;;;;;;;;5053378;28;20057;-66
2023/09/02 03:48:42;;;;;;;17.33;7.63;;;;;;;;;;5036926;28;20451;-66
2023/09/02 03:51:12;;;;;;;19.20;7.60;;;;;;;;;;5054344;28;20098;-66
2023/09/02 03:53:41;;;;;;;18.45;7.63;;;;;;;;;;5053290;28;20044;-66
2023/09/02 03:56:08;;;;;;;16.40;7.40;;;;;;;;;;5053371;28;20109;-66
2023/09/02 03:58:35;;;;;;;18.40;7.25;;;;;;;;;;5053590;28;20033;-66
2023/09/02 04:01:00;;;;;;;18.58;7.35;;;;;;;;;;5052659;28;20036;-66
2023/09/02 04:03:27;;;;;;;19.27;7.18;;;;;;;;;;5052970;28;20033;-67
2023/09/02 04:05:53;;;;;;;15.70;7.25;;;;;;;;;;5036427;28;20037;-66
2023/09/02 04:08:19;;;;;;;14.52;7.22;;;;;;;;;;5053835;28;20049;-66
2023/09/02 04:10:50;;;;;;;19.88;6.90;;;;;;;;;;5053893;28;20076;-66
2023/09/02 04:13:15;;;;;;;28.75;8.13;;;;;;;;;;5052800;28;20029;-66
2023/09/02 04:15:41;;;;;;;11.02;6.57;;;;;;;;;;5053521;28;20490;-66
2023/09/02 04:18:07;;;;;;;18.20;7.57;;;;;;;;;;5052880;28;20053;-67
2023/09/02 04:20:36;;;;;;;13.98;7.03;;;;;;;;;;5052900;28;20055;-67
2023/09/02 04:23:02;;;;;;;15.77;7.90;;;;;;;;;;5052821;28;20075;-66
2023/09/02 04:25:28;;;;;;;21.10;7.07;;;;;;;;;;5052067;28;20286;-67
2023/09/02 04:27:54;;;;;;;16.05;7.60;;;;;;;;;;5035519;28;20056;-67
2023/09/02 04:30:19;;;;;;;17.50;7.03;;;;;;;;;;5035373;28;20063;-68
2023/09/02 04:32:47;;;;;;;18.42;6.90;;;;;;;;;;5018618;28;20040;-65
2023/09/02 04:35:13;;;;;;;21.83;7.72;;;;;;;;;;5051660;28;20101;-66
2023/09/02 04:37:39;;;;;;;17.00;6.95;;;;;;;;;;5050983;28;20459;-67
2023/09/02 04:40:07;;;;;;;14.30;6.65;;;;;;;;;;5019632;28;20111;-68
2023/09/02 04:42:33;;;;;;;13.32;6.18;;;;;;;;;;5052050;28;20041;-68
2023/09/02 04:44:59;;;;;;;19.73;6.40;;;;;;;;;;5018888;28;20040;-65
2023/09/02 04:47:26;;;;;;;17.90;6.72;;;;;;;;;;5051863;28;20056;-65
2023/09/02 04:49:52;;;;;;;20.98;7.07;;;;;;;;;;5035323;28;20139;-67
2023/09/02 04:52:19;;;;;;;19.70;7.05;;;;;;;;;;5035245;28;20037;-65
2023/09/02 04:54:45;;;;;;;13.63;6.63;;;;;;;;;;5052572;28;20063;-64
2023/09/02 04:57:11;;;;;;;14.90;6.20;;;;;;;;;;5052600;28;20047;-65
2023/09/02 04:59:38;;;;;;;19.05;7.32;;;;;;;;;;5052585;28;20039;-66
2023/09/02 05:02:05;;;;;;;15.73;7.10;;;;;;;;;;5051286;28;20068;-65
2023/09/02 05:04:32;;;;;;;12.32;6.40;;;;;;;;;;5051510;28;20332;-65
2023/09/02 05:06:58;;;;;;;25.77;7.50;;;;;;;;;;5051619;28;20067;-66
2023/09/02 05:09:23;;;;;;;17.88;6.70;;;;;;;;;;5051471;28;20135;-65
2023/09/02 05:11:49;;;;;;;24.80;6.95;;;;;;;;;;5052240;28;20076;-65
2023/09/02 05:14:14;;;;;;;15.57;6.53;;;;;;;;;;5051385;28;20033;-65
2023/09/02 05:16:41;;;;;;;18.67;6.53;;;;;;;;;;5051566;28;20051;-66
2023/09/02 05:19:08;;;;;;;23.92;7.18;;;;;;;;;;5051697;28;20040;-66
2023/09/02 05:21:33;;;;;;;14.05;6.53;;;;;;;;;;5051169;28;20098;-66
2023/09/02 05:23:59;;;;;;;20.52;6.63;;;;;;;;;;5051041;28;20036;-66
2023/09/02 05:26:24;;;;;;;25.55;6.65;;;;;;;;;;5017739;28;20383;-66
2023/09/02 05:28:54;;;;;;;15.55;6.53;;;;;;;;;;5018021;28;20040;-66
2023/09/02 05:31:23;;;;;;;16.15;6.88;;;;;;;;;;5034906;28;20033;-65
2023/09/02 05:33:49;;;;;;;26.75;6.85;;;;;;;;;;5053021;28;20043;-65
2023/09/02 05:36:15;;;;;;;22.58;7.07;;;;;;;;;;5036288;28;20041;-65
2023/09/02 05:38:41;;;;;;;13.18;6.45;;;;;;;;;;5034544;28;20510;-66
2023/09/02 05:41:06;;;;;;;19.45;6.82;;;;;;;;;;5034912;28;20047;-66
2023/09/02 05:43:32;;;;;;;14.30;7.65;;;;;;;;;;5050715;28;20090;-67
2023/09/02 05:45:59;;;;;;;17.20;6.85;;;;;;;;;;5027083;28;20115;-66
2023/09/02 05:48:25;;;;;;;18.77;6.90;;;;;;;;;;5013978;28;20049;-65
2023/09/02 05:50:54;;;;;;;17.58;7.53;;;;;;;;;;5030570;28;20039;-66
2023/09/02 05:53:20;;;;;;;19.48;7.30;;;;;;;;;;5029626;28;20534;-65
2023/09/02 05:55:51;;;;;;;37.70;8.85;;;;;;;;;;5029731;28;20073;-65
2023/09/02 05:58:17;;;;;;;25.08;7.68;;;;;;;;;;5032167;28;20037;-66
2023/09/02 06:00:43;;;;;;;31.75;8.02;;;;;;;;;;5031909;28;20049;-65
2023/09/02 06:03:08;;;;;;;22.35;8.13;;;;;;;;;;5014908;28;20187;-65
2023/09/02 06:05:34;;;;;;;32.75;8.13;;;;;;;;;;5031041;28;20060;-65
2023/09/02 06:07:59;;;;;;;62.25;10.90;;;;;;;;;;5047433;28;20134;-65
2023/09/02 06:10:25;;;;;;;23.08;8.40;;;;;;;;;;5031978;28;20033;-64
2023/09/02 06:12:50;;;;;;;28.52;7.38;;;;;;;;;;5032061;28;20175;-65
2023/09/02 06:15:16;;;;;;;16.70;6.60;;;;;;;;;;5031751;28;20037;-65
2023/09/02 06:17:42;;;;;;;18.48;6.88;;;;;;;;;;4999230;28;20044;-65
2023/09/02 06:20:08;;;;;;;16.35;7.07;;;;;;;;;;5047942;28;20048;-65
2023/09/02 06:22:33;;;;;;;15.70;7.55;;;;;;;;;;5029930;28;20045;-65
2023/09/02 06:25:00;;;;;;;21.50;7.60;;;;;;;;;;5029564;28;20056;-65
2023/09/02 06:27:25;;;;;;;26.25;7.75;;;;;;;;;;5032936;28;20038;-65
2023/09/02 06:29:51;;;;;;;17.52;7.50;;;;;;;;;;5033976;28;20068;-66
2023/09/02 06:32:17;;;;;;;18.33;7.65;;;;;;;;;;5031484;28;20357;-65
2023/09/02 06:34:42;;;;;;;19.02;7.65;;;;;;;;;;5047727;28;20061;-67
2023/09/02 06:37:08;;;;;;;14.48;8.48;;;;;;;;;;5030719;28;20071;-65
2023/09/02 06:39:33;;;;;;;19.02;7.65;;;;;;;;;;5014398;28;20647;-65
2023/09/02 06:41:59;;;;;;;19.45;8.10;;;;;;;;;;5031753;28;20030;-65
2023/09/02 06:44:29;;;;;;;22.02;7.90;;;;;;;;;;5031461;28;20218;-66
2023/09/02 06:46:56;;;;;;;24.60;9.85;;;;;;;;;;5034236;28;20060;-68
2023/09/02 06:49:21;;;;;;;24.98;9.88;;;;;;;;;;5033451;28;20120;-66
2023/09/02 06:51:47;;;;;;;22.33;9.98;;;;;;;;;;5032060;28;20053;-66
2023/09/02 06:54:12;;;;;;;25.70;9.98;;;;;;;;;;5031172;28;20029;-65
2023/09/02 06:56:38;;;;;;;22.05;8.85;;;;;;;;;;5034733;28;20506;-65
2023/09/02 06:59:04;;;;;;;17.15;8.30;;;;;;;;;;5041035;28;20033;-66
2023/09/02 07:01:29;;;;;;;21.65;8.75;;;;;;;;;;5030878;28;20061;-67
2023/09/02 07:03:57;;;;;;;20.40;8.43;;;;;;;;;;5046342;28;20034;-66
2023/09/02 07:06:23;;;;;;;18.23;8.82;;;;;;;;;;5045095;28;20037;-66
2023/09/02 07:08:49;;;;;;;18.13;8.18;;;;;;;;;;5027875;28;20561;-66
2023/09/02 07:11:15;;;;;;;22.00;9.23;;;;;;;;;;5028437;28;20036;-66
2023/09/02 07:13:45;;;;;;;23.52;9.05;;;;;;;;;;5043546;28;20035;-65
2023/09/02 07:16:11;;;;;;;;;;;;;;;;;;5046051;28;20029;-67
2023/09/02 07:18:36;;;;;;;16.52;8.32;;;;;;;;;;5039409;28;20075;-65
2023/09/02 07:21:03;;;;;;;22.08;9.68;;;;;;;;;;5042211;28;20041;-66
2023/09/02 07:23:30;;;;;;;19.58;8.43;;;;;;;;;;5043123;28;20048;-66
2023/09/02 07:26:04;;;;;;;20.98;7.25;;;;;;;;;;5020495;28;20091;-68
2023/09/02 07:28:32;;;;;;;28.17;9.07;;;;;;;;;;5042618;28;20057;-67
2023/09/02 07:31:01;;;;;;;19.33;7.72;;;;;;;;;;5041834;28;20040;-66
2023/09/02 07:33:28;;;;;;;18.08;8.48;;;;;;;;;;5028216;28;20065;-66
2023/09/02 07:35:57;;;;;;;22.25;8.85;;;;;;;;;;5028227;28;20030;-69
2023/09/02 07:38:23;;;;;;;17.65;7.50;;;;;;;;;;5041072;28;20416;-65
2023/09/02 07:40:49;;;;;;;21.58;8.50;;;;;;;;;;5044535;28;20163;-66
2023/09/02 07:43:14;;;;;;;17.85;8.95;;;;;;;;;;5042932;28;20120;-66
2023/09/02 07:45:40;;;;;;;22.70;8.52;;;;;;;;;;5042490;28;20045;-67
2023/09/02 07:48:06;;;;;;;23.70;9.00;;;;;;;;;;5026888;28;20048;-67
2023/09/02 07:50:31;;;;;;;23.17;9.02;;;;;;;;;;5040110;28;20033;-66
2023/09/02 07:52:58;;;;;;;21.15;8.93;;;;;;;;;;5010621;28;20024;-66
2023/09/02 07:55:25;;;;;;;17.73;8.18;;;;;;;;;;5044766;28;20060;-66
2023/09/02 07:57:52;;;;;;;20.30;8.85;;;;;;;;;;5042287;28;20029;-67
2023/09/02 08:00:20;;;;;;;21.15;8.90;;;;;;;;;;5027057;28;20438;-66
2023/09/02 08:02:46;;;;;;;15.65;7.88;;;;;;;;;;5028741;28;20033;-71
2023/09/02 08:05:12;;;;;;;21.15;9.20;;;;;;;;;;5011769;28;20090;-66
2023/09/02 08:07:38;;;;;;;24.17;9.10;;;;;;;;;;5042671;28;20037;-66
2023/09/02 08:10:04;;;;;;;25.73;9.63;;;;;;;;;;5043304;28;20048;-66
2023/09/02 08:12:31;;;;;;;19.80;9.05;;;;;;;;;;5044703;28;20122;-67
2023/09/02 08:14:56;;;;;;;20.98;9.77;;;;;;;;;;5043622;28;20087;-66
2023/09/02 08:17:24;;;;;;;15.85;8.90;;;;;;;;;;5043300;28;20122;-67
2023/09/02 08:19:50;;;;;;;19.45;8.82;;;;;;;;;;5027403;28;20036;-66
2023/09/02 08:22:17;;;;;;;19.45;9.30;;;;;;;;;;5025314;28;20167;-66
2023/09/02 08:24:42;;;;;;;20.13;9.15;;;;;;;;;;5026215;28;20036;-67
2023/09/02 08:27:08;;;;;;;22.73;9.32;;;;;;;;;;5042829;28;20074;-67
2023/09/02 08:29:34;;;;;;;21.88;10.30;;;;;;;;;;5026376;28;20044;-67
2023/09/02 08:32:00;;;;;;;22.23;10.00;;;;;;;;;;5045218;28;20043;-66
2023/09/02 08:34:27;;;;;;;26.88;10.38;;;;;;;;;;5044258;28;20069;-67
2023/09/02 08:36:52;;;;;;;23.88;10.80;;;;;;;;;;5032381;28;20052;-67
2023/09/02 08:39:18;;;;;;;19.23;10.27;;;;;;;;;;5032873;28;20044;-67
2023/09/02 08:41:44;;;;;;;17.55;10.25;;;;;;;;;;5033323;28;20499;-67
2023/09/02 08:44:14;;;;;;;18.48;9.38;;;;;;;;;;5032060;28;20113;-69
2023/09/02 08:46:40;;;;;;;16.85;9.52;;;;;;;;;;5032612;28;20503;-68
2023/09/02 08:49:07;;;;;;;22.80;10.65;;;;;;;;;;5031750;28;20041;-68
2023/09/02 08:51:33;;;;;;;24.77;11.25;;;;;;;;;;5013180;28;20132;-68
2023/09/02 08:53:59;;;;;;;26.88;11.43;;;;;;;;;;5012329;28;20065;-68
2023/09/02 08:56:25;;;;;;;21.80;10.95;;;;;;;;;;5030694;28;20103;-68
2023/09/02 08:58:52;;;;;;;25.15;12.07;;;;;;;;;;5028580;28;20450;-68
2023/09/02 09:01:19;;;;;;;23.20;11.45;;;;;;;;;;5014004;28;20479;-68
2023/09/02 09:03:49;;;;;;;28.08;12.45;;;;;;;;;;5031970;28;20084;-68
2023/09/02 09:06:16;;;;;;;23.67;10.68;;;;;;;;;;5031966;28;20376;-68
2023/09/02 09:08:44;;;;;;;22.02;10.15;;;;;;;;;;5032623;28;20387;-68
2023/09/02 09:11:10;;;;;;;27.02;13.07;;;;;;;;;;4999114;28;20048;-68
2023/09/02 09:13:36;;;;;;;19.25;11.77;;;;;;;;;;5032072;28;20029;-68
2023/09/02 09:16:03;;;;;;;26.08;12.30;;;;;;;;;;5032415;28;20037;-68
2023/09/02 09:18:29;;;;;;;25.15;11.60;;;;;;;;;;4998968;28;20038;-68
2023/09/02 09:20:55;;;;;;;20.38;10.93;;;;;;;;;;5031587;28;20033;-68
2023/09/02 09:23:20;;;;;;;26.75;10.88;;;;;;;;;;5031683;28;20037;-68
2023/09/02 09:25:49;;;;;;;32.45;12.95;;;;;;;;;;5031785;28;20048;-68
2023/09/02 09:28:15;;;;;;;27.20;12.30;;;;;;;;;;4998479;28;20049;-68
2023/09/02 09:30:40;;;;;;;25.75;13.98;;;;;;;;;;5031611;28;21247;-68
2023/09/02 09:33:08;;;;;;;27.25;14.18;;;;;;;;;;5031623;28;20504;-68
2023/09/02 09:35:34;;;;;;;26.70;14.88;;;;;;;;;;5031230;28;20048;-68
2023/09/02 09:38:00;;;;;;;20.33;13.55;;;;;;;;;;5014792;28;20042;-68
2023/09/02 09:40:33;;;;;;;25.88;13.57;;;;;;;;;;5015372;28;20107;-68
2023/09/02 09:43:00;;;;;;;29.55;14.65;;;;;;;;;;5014774;28;20350;-68
2023/09/02 09:45:26;;;;;;;24.33;13.15;;;;;;;;;;5030797;28;20041;-68
2023/09/02 09:47:55;;;;;;;27.75;13.43;;;;;;;;;;5015016;28;20045;-70
2023/09/02 09:50:21;;;;;;;26.08;13.60;;;;;;;;;;5031790;28;20041;-68
2023/09/02 09:53:05;;;;;;;22.83;13.80;;;;;;;;;;5015013;28;20029;-68
2023/09/02 09:55:33;;;;;;;26.80;13.07;;;;;;;;;;5031255;28;20029;-68
2023/09/02 09:57:59;;;;;;;25.63;13.23;;;;;;;;;;5031028;28;20033;-68
2023/09/02 10:00:26;;;;;;;27.60;13.73;;;;;;;;;;5010039;28;20152;-68
2023/09/02 10:02:53;;;;;;;32.28;13.68;;;;;;;;;;4962079;28;20053;-68
2023/09/02 10:05:25;;;;;;;24.92;13.32;;;;;;;;;;5010792;28;20050;-68
2023/09/02 10:08:01;;;;;;;23.05;13.30;;;;;;;;;;4994789;28;20037;-68
2023/09/02 10:10:30;;;;;;;29.23;13.07;;;;;;;;;;4995615;28;20104;-68
2023/09/02 10:12:57;;;;;;;21.50;13.23;;;;;;;;;;4981378;28;20037;-67
2023/09/02 10:15:26;;;;;;;36.95;18.63;;;;;;;;;;4980356;28;20406;-70
2023/09/02 10:17:59;;;;;;;34.65;17.90;;;;;;;;;;5010774;28;20045;-68
2023/09/02 10:20:33;;;;;;;30.15;16.95;;;;;;;;;;4978301;28;20046;-68
2023/09/02 10:23:09;;;;;;;28.00;15.73;;;;;;;;;;4994072;28;20129;-68
2023/09/02 10:25:58;;;;;;;24.83;15.02;;;;;;;;;;4993657;28;20073;-69
2023/09/02 10:28:30;;;;;;;29.70;16.10;;;;;;;;;;4979254;28;20061;-69
2023/09/02 10:30:57;;;;;;;31.40;17.83;;;;;;;;;;5004081;28;20048;-67
2023/09/02 10:33:26;;;;;;;27.40;17.20;;;;;;;;;;5031838;28;20463;-67
2023/09/02 10:36:00;;;;;;;29.67;16.40;;;;;;;;;;5033830;28;20062;-67
2023/09/02 10:38:31;;;;;;;27.98;16.27;;;;;;;;;;5034492;28;20486;-68
2023/09/02 10:41:08;;;;;;;22.42;15.98;;;;;;;;;;5034654;28;20128;-68
2023/09/02 10:43:34;;;;;;;25.45;15.63;;;;;;;;;;5017332;28;20475;-67
2023/09/02 10:46:07;;;;;;;28.00;15.05;;;;;;;;;;5040421;28;20487;-68
2023/09/02 10:48:44;;;;;;;25.60;17.10;;;;;;;;;;5044378;28;20057;-69
2023/09/02 10:51:10;;;;;;;33.42;18.83;;;;;;;;;;5028752;28;20064;-67
2023/09/02 10:53:50;;;;;;;27.48;18.25;;;;;;;;;;5028854;28;20044;-68
2023/09/02 10:56:32;;;;;;;33.20;20.53;;;;;;;;;;5043515;28;20033;-67
2023/09/02 10:59:05;;;;;;;36.75;20.05;;;;;;;;;;5044778;28;20414;-65
2023/09/02 11:01:44;;;;;;;33.25;19.40;;;;;;;;;;5028535;28;20029;-68
2023/09/02 11:04:10;;;;;;;33.35;20.80;;;;;;;;;;5043534;28;20057;-69
2023/09/02 11:06:57;;;;;;;33.60;20.13;;;;;;;;;;5020860;28;20060;-68
2023/09/02 11:09:42;;;;;;;33.10;19.33;;;;;;;;;;5045556;28;20470;-68
2023/09/02 11:12:08;;;;;;;33.88;19.77;;;;;;;;;;5043656;28;20118;-71
2023/09/02 11:14:35;;;;;;;32.65;19.20;;;;;;;;;;5043284;28;20055;-68
2023/09/02 11:17:19;;;;;;;29.15;19.85;;;;;;;;;;5037210;28;20398;-68
2023/09/02 11:19:57;;;;;;;32.97;20.48;;;;;;;;;;5022772;28;20032;-68
2023/09/02 11:22:42;;;;;;;34.33;21.38;;;;;;;;;;5039725;28;20033;-69
2023/09/02 11:25:08;;;;;;;40.05;23.00;;;;;;;;;;5056570;28;20407;-71
2023/09/02 11:27:44;;;;;;;33.45;20.52;;;;;;;;;;5041026;28;20032;-70
2023/09/02 11:30:11;;;;;;;35.60;23.33;;;;;;;;;;5016823;28;20104;-69
2023/09/02 11:32:44;;;;;;;34.58;22.25;;;;;;;;;;5001112;28;20045;-70
2023/09/02 11:35:15;;;;;;;35.17;22.35;;;;;;;;;;5010464;28;20179;-69
2023/09/02 11:37:40;;;;;;;35.88;21.33;;;;;;;;;;5030621;28;20037;-68
2023/09/02 11:40:17;;;;;;;32.72;20.90;;;;;;;;;;5012805;28;20044;-69
2023/09/02 11:43:02;;;;;;;39.05;22.50;;;;;;;;;;5028612;28;20036;-70
2023/09/02 11:45:30;;;;;;;32.22;22.42;;;;;;;;;;5001380;28;20037;-71
2023/09/02 11:47:58;;;;;;;41.25;23.52;;;;;;;;;;4991231;28;20042;-69
2023/09/02 11:50:25;;;;;;;42.05;24.60;;;;;;;;;;4977482;28;20099;-69
2023/09/02 11:52:53;;;;;;;45.45;27.38;;;;;;;;;;4961487;28;20052;-71
2023/09/02 11:55:20;;;;;;;42.17;26.17;;;;;;;;;;4979030;28;20607;-69
2023/09/02 11:57:48;;;;;;;34.40;22.58;;;;;;;;;;4995759;28;20203;-68
2023/09/02 12:00:15;;;;;;;36.85;21.40;;;;;;;;;;4998341;28;20125;-68
2023/09/02 12:02:41;;;;;;;39.70;22.38;;;;;;;;;;5015742;28;20372;-68
2023/09/02 12:05:08;;;;;;;30.88;20.60;;;;;;;;;;4983341;28;20520;-69
2023/09/02 12:07:34;;;;;;;33.10;21.70;;;;;;;;;;5016418;28;20048;-68
2023/09/02 12:10:07;;;;;;;32.15;20.17;;;;;;;;;;5000156;28;20063;-69
2023/09/02 12:12:34;;;;;;;36.80;21.33;;;;;;;;;;4999823;28;20038;-68
2023/09/02 12:15:03;;;;;;;33.78;23.10;;;;;;;;;;4999177;28;20068;-75
2023/09/02 12:17:31;;;;;;;40.78;23.20;;;;;;;;;;5032256;28;20033;-69
2023/09/02 12:19:58;;;;;;;34.20;21.50;;;;;;;;;;4999453;28;20534;-68
2023/09/02 12:22:24;;;;;;;41.10;22.80;;;;;;;;;;4999174;28;20387;-68
2023/09/02 12:24:50;;;;;;;32.45;22.05;;;;;;;;;;5015439;28;20194;-68
2023/09/02 12:27:19;;;;;;;33.88;21.58;;;;;;;;;;4982833;28;20045;-68
2023/09/02 12:29:57;;;;;;;29.60;20.52;;;;;;;;;;5015983;28;20522;-68
2023/09/02 12:32:24;;;;;;;34.97;19.20;;;;;;;;;;5017660;28;20480;-70
2023/09/02 12:34:50;;;;;;;30.13;19.95;;;;;;;;;;5032732;28;20498;-69
2023/09/02 12:37:16;;;;;;;28.00;18.00;;;;;;;;;;5034462;28;20048;-69
2023/09/02 12:39:42;;;;;;;29.88;17.77;;;;;;;;;;5017804;28;20041;-69
2023/09/02 12:42:24;;;;;;;24.52;17.23;;;;;;;;;;5035012;28;20045;-69
2023/09/02 12:44:58;;;;;;;35.88;20.95;;;;;;;;;;5018060;28;20037;-68
2023/09/02 12:47:25;;;;;;;31.70;18.77;;;;;;;;;;5017780;28;20463;-68
2023/09/02 12:49:55;;;;;;;39.13;22.67;;;;;;;;;;5017730;28;20053;-68
2023/09/02 12:52:21;;;;;;;34.30;21.05;;;;;;;;;;5018116;28;20032;-68
2023/09/02 12:54:57;;;;;;;45.85;25.67;;;;;;;;;;5034163;28;20081;-68
2023/09/02 12:57:24;;;;;;;44.55;23.75;;;;;;;;;;5016941;28;20048;-68
2023/09/02 12:59:50;;;;;;;44.92;26.38;;;;;;;;;;5017973;28;20101;-69
2023/09/02 13:02:16;;;;;;;46.40;31.58;;;;;;;;;;5017986;28;20463;-68
2023/09/02 13:04:42;;;;;;;41.88;23.13;;;;;;;;;;5017846;28;20056;-68
2023/09/02 13:07:08;;;;;;;40.33;20.95;;;;;;;;;;5034170;28;20083;-69
2023/09/02 13:09:35;;;;;;;30.88;19.13;;;;;;;;;;5013844;28;20508;-69
2023/09/02 13:12:01;;;;;;;33.97;19.35;;;;;;;;;;5014439;28;20052;-69
2023/09/02 13:14:30;;;;;;;30.38;20.40;;;;;;;;;;5009226;28;20119;-68
2023/09/02 13:16:57;;;;;;;31.13;21.17;;;;;;;;;;5014316;28;20045;-69
2023/09/02 13:19:23;;;;;;;34.28;21.20;;;;;;;;;;4997766;28;20049;-68
2023/09/02 13:21:49;;;;;;;32.15;19.27;;;;;;;;;;5016432;28;20033;-69
2023/09/02 13:24:16;;;;;;;30.23;18.45;;;;;;;;;;5016642;28;20068;-69
2023/09/02 13:26:45;;;;;;;31.05;18.90;;;;;;;;;;5030886;28;20526;-68
2023/09/02 13:29:10;;;;;;;26.25;18.70;;;;;;;;;;4997557;28;20546;-70
2023/09/02 13:31:37;;;;;;;34.58;21.23;;;;;;;;;;5013795;28;20037;-69
2023/09/02 13:34:04;;;;;;;33.90;20.30;;;;;;;;;;4997456;28;20029;-68
2023/09/02 13:36:30;;;;;;;32.08;20.15;;;;;;;;;;4998159;28;20040;-68
2023/09/02 13:38:56;;;;;;;31.30;19.25;;;;;;;;;;5013869;28;20045;-68
2023/09/02 13:41:22;;;;;;;30.42;20.02;;;;;;;;;;5031988;28;20065;-69
2023/09/02 13:43:48;;;;;;;31.75;19.42;;;;;;;;;;5031231;28;20396;-68
2023/09/02 13:46:14;;;;;;;29.92;19.80;;;;;;;;;;4999058;28;20064;-69
2023/09/02 13:48:41;;;;;;;30.00;19.23;;;;;;;;;;5031095;28;20472;-69
2023/09/02 13:51:07;;;;;;;31.75;19.73;;;;;;;;;;4998249;28;20040;-70
2023/09/02 13:53:33;;;;;;;32.40;20.50;;;;;;;;;;5014923;28;20139;-69
2023/09/02 13:56:00;;;;;;;30.58;18.60;;;;;;;;;;5014517;28;20428;-69
2023/09/02 13:58:32;;;;;;;22.90;15.65;;;;;;;;;;5030849;28;20419;-69
2023/09/02 14:00:58;;;;;;;21.10;14.82;;;;;;;;;;5032192;28;20034;-69
2023/09/02 14:03:24;;;;;;;19.13;11.90;;;;;;;;;;4999268;28;20041;-68
2023/09/02 14:05:51;;;;;;;17.30;11.48;;;;;;;;;;5031700;28;20044;-69
2023/09/02 14:08:18;;;;;;;27.63;13.30;;;;;;;;;;4998609;28;20052;-69
2023/09/02 14:10:45;;;;;;;24.42;14.10;;;;;;;;;;5031974;28;20120;-69
2023/09/02 14:13:12;;;;;;;24.38;14.75;;;;;;;;;;5034537;28;20131;-70
2023/09/02 14:15:37;;;;;;;20.95;15.23;;;;;;;;;;5016389;28;20034;-69
2023/09/02 14:18:03;;;;;;;19.85;14.63;;;;;;;;;;4998842;28;20436;-69
2023/09/02 14:20:30;;;;;;;26.90;15.45;;;;;;;;;;5015748;28;20589;-69
2023/09/02 14:22:56;;;;;;;21.30;13.63;;;;;;;;;;5014526;28;20040;-69
2023/09/02 14:25:22;;;;;;;14.38;10.82;;;;;;;;;;5013979;28;20139;-69
2023/09/02 14:27:48;;;;;;;14.57;10.45;;;;;;;;;;5030671;28;20491;-68